SAS795 EKCH-LFMN
Flight info
| Callsign | SAS795 |
|---|---|
| Flight time | 1h 58m |
| Altitude | 38000 |
| Route | NEXEN T503 GIMRU DCT MICOS DCT OTMON DCT BOMBI DCT GIGET DCT ABUKA DCT KRH DCT NATOR/N0442F370 DCT TRA DCT RIPUS DCT GERSA DCT SOSON DCT ODINA DCT ENOBA Z185 ASBOP/N0384F190 Z185 BORDI |
| Aircraft | A319/M-SDE3FGHIRWY/LB1 |
Departure
| Time | 2026-04-30 20:06 |
|---|---|
| Airport | Copenhagen Kastrup Airport (EKCH) |
Arrival
| Time | 2026-04-30 22:04 |
|---|---|
| Airport | Nice-Côte d'Azur Airport (LFMN) |
| Time | Latitude | Longitude | Altitude | Speed | Heading |
|---|---|---|---|---|---|
| 2026-04-30 19:15 | 55.62755 | 12.64478 | 24 ft | 0 kts | 102° |
| 2026-04-30 19:50 | 55.62756 | 12.64466 | 24 ft | 4 kts | 102° |
| 2026-04-30 19:50 | 55.62761 | 12.64425 | 25 ft | 2 kts | 102° |
| 2026-04-30 19:50 | 55.62760 | 12.64392 | 24 ft | 4 kts | 39° |
| 2026-04-30 19:51 | 55.62739 | 12.64370 | 26 ft | 4 kts | 27° |
| 2026-04-30 19:51 | 55.62719 | 12.64352 | 24 ft | 2 kts | 27° |
| 2026-04-30 19:51 | 55.62696 | 12.64333 | 26 ft | 4 kts | 21° |
| 2026-04-30 19:51 | 55.62677 | 12.64319 | 24 ft | 4 kts | 21° |
| 2026-04-30 19:52 | 55.62652 | 12.64302 | 24 ft | 4 kts | 23° |
| 2026-04-30 19:52 | 55.62627 | 12.64281 | 25 ft | 4 kts | 32° |
| 2026-04-30 19:52 | 55.62607 | 12.64254 | 24 ft | 4 kts | 57° |
| 2026-04-30 19:52 | 55.62600 | 12.64213 | 26 ft | 4 kts | 103° |
| 2026-04-30 19:53 | 55.62611 | 12.64175 | 24 ft | 4 kts | 123° |
| 2026-04-30 19:53 | 55.62625 | 12.64135 | 24 ft | 4 kts | 123° |
| 2026-04-30 19:53 | 55.62629 | 12.64125 | 24 ft | 2 kts | 123° |
| 2026-04-30 19:59 | 55.62628 | 12.64128 | 24 ft | 2 kts | 123° |
| 2026-04-30 19:59 | 55.62583 | 12.64250 | 26 ft | 10 kts | 123° |
| 2026-04-30 20:00 | 55.62536 | 12.64374 | 25 ft | 14 kts | 123° |
| 2026-04-30 20:00 | 55.62480 | 12.64526 | 25 ft | 16 kts | 123° |
| 2026-04-30 20:00 | 55.62420 | 12.64689 | 25 ft | 16 kts | 123° |
| 2026-04-30 20:00 | 55.62356 | 12.64863 | 26 ft | 17 kts | 123° |
| 2026-04-30 20:01 | 55.62231 | 12.65170 | 24 ft | 15 kts | 156° |
| 2026-04-30 20:01 | 55.62130 | 12.65087 | 25 ft | 16 kts | 213° |
| 2026-04-30 20:01 | 55.62031 | 12.64972 | 24 ft | 19 kts | 213° |
| 2026-04-30 20:02 | 55.61800 | 12.64709 | 24 ft | 21 kts | 213° |
| 2026-04-30 20:02 | 55.61681 | 12.64572 | 24 ft | 21 kts | 214° |
| 2026-04-30 20:03 | 55.61446 | 12.64300 | 25 ft | 19 kts | 213° |
| 2026-04-30 20:03 | 55.61327 | 12.64162 | 25 ft | 21 kts | 213° |
| 2026-04-30 20:03 | 55.61215 | 12.64035 | 24 ft | 19 kts | 215° |
| 2026-04-30 20:03 | 55.61099 | 12.63898 | 24 ft | 22 kts | 213° |
| 2026-04-30 20:04 | 55.60966 | 12.63746 | 24 ft | 23 kts | 212° |
| 2026-04-30 20:04 | 55.60840 | 12.63606 | 26 ft | 18 kts | 207° |
| 2026-04-30 20:04 | 55.60736 | 12.63700 | 24 ft | 19 kts | 130° |
| 2026-04-30 20:05 | 55.60695 | 12.63899 | 26 ft | 0 kts | 40° |
| 2026-04-30 20:05 | 55.60696 | 12.63900 | 26 ft | 1 kts | 40° |
| 2026-04-30 20:05 | 55.61169 | 12.64629 | 24 ft | 106 kts | 41° |
| 2026-04-30 20:06 | 55.61868 | 12.65705 | 51 ft | 155 kts | 40° |
| 2026-04-30 20:06 | 55.62680 | 12.66976 | 632 ft | 157 kts | 39° |
| 2026-04-30 20:06 | 55.63500 | 12.68266 | 1291 ft | 158 kts | 38° |
| 2026-04-30 20:06 | 55.64373 | 12.69630 | 1653 ft | 176 kts | 37° |
| 2026-04-30 20:07 | 55.65352 | 12.71139 | 1971 ft | 197 kts | 37° |
| 2026-04-30 20:07 | 55.66477 | 12.72792 | 2206 ft | 226 kts | 35° |
| 2026-04-30 20:07 | 55.68955 | 12.76963 | 3459 ft | 262 kts | 61° |
| 2026-04-30 20:08 | 55.69409 | 12.80112 | 4374 ft | 269 kts | 89° |
| 2026-04-30 20:08 | 55.69020 | 12.83351 | 5413 ft | 271 kts | 113° |
| 2026-04-30 20:08 | 55.67910 | 12.86053 | 6413 ft | 278 kts | 135° |
| 2026-04-30 20:08 | 55.66207 | 12.87730 | 7274 ft | 287 kts | 162° |
| 2026-04-30 20:09 | 55.64203 | 12.87866 | 8157 ft | 294 kts | 190° |
| 2026-04-30 20:09 | 55.62332 | 12.86397 | 9077 ft | 298 kts | 216° |
| 2026-04-30 20:09 | 55.59114 | 12.81565 | 10652 ft | 311 kts | 222° |
| 2026-04-30 20:10 | 55.55672 | 12.76036 | 11180 ft | 356 kts | 223° |
| 2026-04-30 20:10 | 55.53812 | 12.73062 | 11729 ft | 364 kts | 222° |
| 2026-04-30 20:10 | 55.51908 | 12.70051 | 12392 ft | 370 kts | 221° |
| 2026-04-30 20:11 | 55.47992 | 12.63954 | 13717 ft | 380 kts | 221° |
| 2026-04-30 20:11 | 55.45992 | 12.60855 | 14347 ft | 386 kts | 221° |
| 2026-04-30 20:11 | 55.43960 | 12.57715 | 14948 ft | 390 kts | 221° |
| 2026-04-30 20:12 | 55.39869 | 12.51407 | 16185 ft | 397 kts | 221° |
| 2026-04-30 20:12 | 55.37789 | 12.48197 | 16816 ft | 400 kts | 221° |
| 2026-04-30 20:12 | 55.35686 | 12.44956 | 17436 ft | 403 kts | 221° |
| 2026-04-30 20:13 | 55.33567 | 12.41698 | 18067 ft | 407 kts | 221° |
| 2026-04-30 20:13 | 55.31422 | 12.38408 | 18695 ft | 410 kts | 222° |
| 2026-04-30 20:13 | 55.29266 | 12.35108 | 19245 ft | 413 kts | 222° |
| 2026-04-30 20:13 | 55.27089 | 12.31784 | 19800 ft | 416 kts | 222° |
| 2026-04-30 20:14 | 55.24895 | 12.28436 | 20380 ft | 419 kts | 222° |
| 2026-04-30 20:14 | 55.22691 | 12.25075 | 20937 ft | 422 kts | 222° |
| 2026-04-30 20:14 | 55.20467 | 12.21685 | 21497 ft | 425 kts | 222° |
| 2026-04-30 20:14 | 55.18237 | 12.18286 | 22032 ft | 427 kts | 222° |
| 2026-04-30 20:15 | 55.15984 | 12.14858 | 22535 ft | 430 kts | 222° |
| 2026-04-30 20:15 | 55.13719 | 12.11423 | 23059 ft | 432 kts | 222° |
| 2026-04-30 20:15 | 55.11442 | 12.07980 | 23564 ft | 435 kts | 222° |
| 2026-04-30 20:15 | 55.09143 | 12.04511 | 24052 ft | 438 kts | 222° |
| 2026-04-30 20:16 | 55.06835 | 12.01025 | 24470 ft | 440 kts | 222° |
| 2026-04-30 20:16 | 55.04517 | 11.97527 | 24894 ft | 442 kts | 222° |
| 2026-04-30 20:16 | 55.02183 | 11.94017 | 25310 ft | 444 kts | 222° |
| 2026-04-30 20:16 | 54.99837 | 11.90491 | 25720 ft | 446 kts | 222° |
| 2026-04-30 20:17 | 54.97487 | 11.86959 | 26132 ft | 448 kts | 222° |
| 2026-04-30 20:17 | 54.95115 | 11.83403 | 26541 ft | 451 kts | 222° |
| 2026-04-30 20:17 | 54.92732 | 11.79846 | 26947 ft | 453 kts | 222° |
| 2026-04-30 20:17 | 54.90330 | 11.76273 | 27344 ft | 455 kts | 222° |
| 2026-04-30 20:18 | 54.87921 | 11.72696 | 27743 ft | 457 kts | 222° |
| 2026-04-30 20:18 | 54.85501 | 11.69103 | 28124 ft | 459 kts | 222° |
| 2026-04-30 20:18 | 54.83099 | 11.65533 | 28506 ft | 462 kts | 222° |
| 2026-04-30 20:18 | 54.80643 | 11.61922 | 28878 ft | 464 kts | 221° |
| 2026-04-30 20:19 | 54.78070 | 11.58407 | 29254 ft | 467 kts | 219° |
| 2026-04-30 20:19 | 54.76338 | 11.56188 | 29484 ft | 468 kts | 217° |
| 2026-04-30 20:19 | 54.72796 | 11.51864 | 29958 ft | 472 kts | 216° |
| 2026-04-30 20:19 | 54.70089 | 11.48640 | 30291 ft | 474 kts | 216° |
| 2026-04-30 20:20 | 54.67367 | 11.45389 | 30589 ft | 476 kts | 217° |
| 2026-04-30 20:20 | 54.64652 | 11.42105 | 30866 ft | 478 kts | 217° |
| 2026-04-30 20:20 | 54.61937 | 11.38776 | 31167 ft | 479 kts | 217° |
| 2026-04-30 20:20 | 54.59232 | 11.35426 | 31565 ft | 477 kts | 218° |
| 2026-04-30 20:21 | 54.56545 | 11.32080 | 32000 ft | 475 kts | 217° |
| 2026-04-30 20:21 | 54.53873 | 11.28758 | 32422 ft | 474 kts | 217° |
| 2026-04-30 20:21 | 54.51195 | 11.25460 | 32854 ft | 472 kts | 217° |
| 2026-04-30 20:21 | 54.48521 | 11.22198 | 33290 ft | 470 kts | 217° |
| 2026-04-30 20:22 | 54.45848 | 11.18959 | 33734 ft | 469 kts | 217° |
| 2026-04-30 20:22 | 54.43193 | 11.15756 | 34181 ft | 466 kts | 216° |
| 2026-04-30 20:22 | 54.40540 | 11.12561 | 34597 ft | 465 kts | 216° |
| 2026-04-30 20:22 | 54.37899 | 11.09381 | 34968 ft | 463 kts | 216° |
| 2026-04-30 20:23 | 54.35261 | 11.06202 | 35333 ft | 462 kts | 217° |
| 2026-04-30 20:23 | 54.32633 | 11.03047 | 35693 ft | 462 kts | 215° |
| 2026-04-30 20:23 | 54.29837 | 11.00317 | 36017 ft | 462 kts | 206° |
| 2026-04-30 20:23 | 54.26851 | 10.98315 | 36343 ft | 462 kts | 200° |
| 2026-04-30 20:24 | 54.23806 | 10.96528 | 36659 ft | 462 kts | 199° |
| 2026-04-30 20:24 | 54.20760 | 10.94743 | 36966 ft | 462 kts | 199° |
| 2026-04-30 20:24 | 54.17721 | 10.92956 | 37270 ft | 461 kts | 200° |
| 2026-04-30 20:24 | 54.14688 | 10.91168 | 37573 ft | 461 kts | 200° |
| 2026-04-30 20:25 | 54.08633 | 10.87595 | 38186 ft | 460 kts | 200° |
| 2026-04-30 20:25 | 54.05644 | 10.85841 | 38415 ft | 460 kts | 199° |
| 2026-04-30 20:26 | 53.99613 | 10.82313 | 38456 ft | 457 kts | 199° |
| 2026-04-30 20:26 | 53.90588 | 10.77053 | 38461 ft | 457 kts | 199° |
| 2026-04-30 20:27 | 53.78544 | 10.70075 | 38463 ft | 457 kts | 199° |
| 2026-04-30 20:28 | 53.66473 | 10.63118 | 38455 ft | 459 kts | 199° |
| 2026-04-30 20:30 | 53.51353 | 10.54462 | 38441 ft | 460 kts | 199° |
| 2026-04-30 20:31 | 53.33217 | 10.44173 | 38447 ft | 459 kts | 199° |
| 2026-04-30 20:32 | 53.17905 | 10.36593 | 38438 ft | 459 kts | 194° |
| 2026-04-30 20:33 | 53.08661 | 10.32387 | 38435 ft | 459 kts | 195° |
| 2026-04-30 20:34 | 52.99440 | 10.28063 | 38433 ft | 459 kts | 195° |
| 2026-04-30 20:35 | 52.91242 | 10.24291 | 38439 ft | 459 kts | 195° |
| 2026-04-30 20:35 | 52.81996 | 10.20043 | 38439 ft | 459 kts | 195° |
| 2026-04-30 20:36 | 52.75841 | 10.17194 | 38436 ft | 459 kts | 195° |
| 2026-04-30 20:37 | 52.66608 | 10.12952 | 38438 ft | 459 kts | 195° |
| 2026-04-30 20:37 | 52.60452 | 10.10142 | 38436 ft | 459 kts | 195° |
| 2026-04-30 20:38 | 52.54293 | 10.07356 | 38440 ft | 459 kts | 195° |
| 2026-04-30 20:38 | 52.48134 | 10.04570 | 38437 ft | 459 kts | 195° |
| 2026-04-30 20:39 | 52.38887 | 10.00371 | 38437 ft | 460 kts | 195° |
| 2026-04-30 20:40 | 52.29628 | 9.96191 | 38438 ft | 460 kts | 194° |
| 2026-04-30 20:40 | 52.23440 | 9.93442 | 38437 ft | 461 kts | 194° |
| 2026-04-30 20:41 | 52.14202 | 9.89313 | 38439 ft | 461 kts | 194° |
| 2026-04-30 20:41 | 52.08020 | 9.86550 | 38435 ft | 461 kts | 194° |
| 2026-04-30 20:42 | 52.01839 | 9.83813 | 38430 ft | 461 kts | 194° |
| 2026-04-30 20:43 | 51.92551 | 9.79722 | 38433 ft | 461 kts | 194° |
| 2026-04-30 20:43 | 51.86354 | 9.76987 | 38435 ft | 461 kts | 194° |
| 2026-04-30 20:44 | 51.77080 | 9.72912 | 38428 ft | 460 kts | 194° |
| 2026-04-30 20:45 | 51.64734 | 9.67519 | 38435 ft | 459 kts | 194° |
| 2026-04-30 20:45 | 51.58563 | 9.64829 | 38437 ft | 460 kts | 194° |
| 2026-04-30 20:46 | 51.46211 | 9.59481 | 38431 ft | 460 kts | 194° |
| 2026-04-30 20:47 | 51.36965 | 9.55508 | 38436 ft | 461 kts | 193° |
| 2026-04-30 20:48 | 51.27674 | 9.51504 | 38418 ft | 461 kts | 193° |
| 2026-04-30 20:48 | 51.21471 | 9.48850 | 38419 ft | 462 kts | 193° |
| 2026-04-30 20:49 | 51.15261 | 9.46201 | 38421 ft | 462 kts | 193° |
| 2026-04-30 20:50 | 51.05948 | 9.42245 | 38417 ft | 462 kts | 193° |
| 2026-04-30 20:50 | 50.99724 | 9.39614 | 38412 ft | 462 kts | 193° |
| 2026-04-30 20:51 | 50.93511 | 9.36980 | 38432 ft | 462 kts | 193° |
| 2026-04-30 20:51 | 50.84183 | 9.33053 | 38422 ft | 463 kts | 193° |
| 2026-04-30 20:52 | 50.77963 | 9.30449 | 38409 ft | 462 kts | 193° |
| 2026-04-30 20:53 | 50.68625 | 9.26548 | 38405 ft | 462 kts | 193° |
| 2026-04-30 20:53 | 50.62399 | 9.23960 | 38405 ft | 463 kts | 193° |
| 2026-04-30 20:54 | 50.53104 | 9.20100 | 38395 ft | 462 kts | 193° |
| 2026-04-30 20:55 | 50.43768 | 9.16230 | 38391 ft | 463 kts | 193° |
| 2026-04-30 20:55 | 50.37536 | 9.13657 | 38382 ft | 463 kts | 193° |
| 2026-04-30 20:56 | 50.28180 | 9.09821 | 38370 ft | 464 kts | 192° |
| 2026-04-30 20:57 | 50.18816 | 9.05987 | 38358 ft | 464 kts | 192° |
| 2026-04-30 20:57 | 50.12530 | 9.03415 | 38355 ft | 464 kts | 192° |
| 2026-04-30 20:58 | 50.03196 | 8.99637 | 38358 ft | 464 kts | 192° |
| 2026-04-30 20:58 | 49.96947 | 8.97113 | 38347 ft | 464 kts | 192° |
| 2026-04-30 20:59 | 49.87565 | 8.93319 | 38343 ft | 464 kts | 192° |
| 2026-04-30 21:00 | 49.75058 | 8.88290 | 38336 ft | 464 kts | 192° |
| 2026-04-30 21:01 | 49.65672 | 8.84526 | 38344 ft | 465 kts | 192° |
| 2026-04-30 21:02 | 49.56273 | 8.80797 | 38346 ft | 465 kts | 192° |
| 2026-04-30 21:02 | 49.50001 | 8.78304 | 38348 ft | 465 kts | 192° |
| 2026-04-30 21:03 | 49.43722 | 8.75821 | 38337 ft | 466 kts | 192° |
| 2026-04-30 21:03 | 49.37443 | 8.73347 | 38351 ft | 466 kts | 192° |
| 2026-04-30 21:04 | 49.31170 | 8.70872 | 38346 ft | 466 kts | 192° |
| 2026-04-30 21:04 | 49.21756 | 8.67189 | 38326 ft | 466 kts | 192° |
| 2026-04-30 21:05 | 49.15519 | 8.64739 | 38326 ft | 466 kts | 192° |
| 2026-04-30 21:05 | 49.09238 | 8.62274 | 38315 ft | 466 kts | 192° |
| 2026-04-30 21:06 | 49.02955 | 8.59826 | 38321 ft | 466 kts | 192° |
| 2026-04-30 21:06 | 48.96644 | 8.57445 | 38318 ft | 466 kts | 190° |
| 2026-04-30 21:07 | 48.90304 | 8.55386 | 38317 ft | 466 kts | 188° |
| 2026-04-30 21:07 | 48.83956 | 8.53443 | 38322 ft | 466 kts | 189° |
| 2026-04-30 21:08 | 48.77604 | 8.51426 | 38329 ft | 466 kts | 189° |
| 2026-04-30 21:08 | 48.71257 | 8.49367 | 38327 ft | 466 kts | 189° |
| 2026-04-30 21:09 | 48.64951 | 8.47333 | 38322 ft | 466 kts | 189° |
| 2026-04-30 21:09 | 48.58605 | 8.45313 | 38322 ft | 466 kts | 189° |
| 2026-04-30 21:10 | 48.52251 | 8.43289 | 38324 ft | 466 kts | 189° |
| 2026-04-30 21:10 | 48.45905 | 8.41264 | 38328 ft | 466 kts | 189° |
| 2026-04-30 21:11 | 48.39545 | 8.39242 | 38331 ft | 466 kts | 189° |
| 2026-04-30 21:11 | 48.33196 | 8.37238 | 38336 ft | 466 kts | 189° |
| 2026-04-30 21:12 | 48.26844 | 8.35237 | 38340 ft | 467 kts | 189° |
| 2026-04-30 21:12 | 48.20485 | 8.33241 | 38335 ft | 466 kts | 187° |
| 2026-04-30 21:13 | 48.14072 | 8.32860 | 38342 ft | 459 kts | 169° |
| 2026-04-30 21:13 | 48.07785 | 8.34359 | 38324 ft | 458 kts | 167° |
| 2026-04-30 21:14 | 48.01491 | 8.35888 | 38325 ft | 459 kts | 167° |
| 2026-04-30 21:14 | 47.95218 | 8.37393 | 38336 ft | 459 kts | 167° |
| 2026-04-30 21:15 | 47.88922 | 8.38903 | 38323 ft | 459 kts | 168° |
| 2026-04-30 21:15 | 47.82610 | 8.40413 | 38313 ft | 459 kts | 168° |
| 2026-04-30 21:16 | 47.76300 | 8.41931 | 38310 ft | 459 kts | 168° |
| 2026-04-30 21:16 | 47.69984 | 8.43447 | 38328 ft | 460 kts | 167° |
| 2026-04-30 21:17 | 47.63625 | 8.44698 | 38299 ft | 462 kts | 171° |
| 2026-04-30 21:17 | 47.57205 | 8.45544 | 38292 ft | 463 kts | 172° |
| 2026-04-30 21:18 | 47.50776 | 8.46361 | 38290 ft | 464 kts | 172° |
| 2026-04-30 21:18 | 47.44358 | 8.47282 | 38292 ft | 464 kts | 172° |
| 2026-04-30 21:19 | 47.37936 | 8.48240 | 38292 ft | 464 kts | 172° |
| 2026-04-30 21:19 | 47.31518 | 8.49192 | 38292 ft | 463 kts | 172° |
| 2026-04-30 21:20 | 47.26178 | 8.49978 | 38289 ft | 464 kts | 172° |
| 2026-04-30 21:20 | 47.18709 | 8.51070 | 38284 ft | 463 kts | 172° |
| 2026-04-30 21:21 | 47.13324 | 8.51851 | 38276 ft | 464 kts | 172° |
| 2026-04-30 21:22 | 47.03696 | 8.53243 | 38261 ft | 464 kts | 173° |
| 2026-04-30 21:23 | 46.90845 | 8.55102 | 38260 ft | 464 kts | 173° |
| 2026-04-30 21:23 | 46.81231 | 8.56464 | 38264 ft | 464 kts | 174° |
| 2026-04-30 21:24 | 46.74797 | 8.57390 | 38282 ft | 464 kts | 173° |
| 2026-04-30 21:24 | 46.68352 | 8.58312 | 38271 ft | 465 kts | 173° |
| 2026-04-30 21:25 | 46.58683 | 8.59691 | 38284 ft | 466 kts | 174° |
| 2026-04-30 21:26 | 46.49006 | 8.61061 | 38288 ft | 466 kts | 174° |
| 2026-04-30 21:27 | 46.39331 | 8.62438 | 38310 ft | 466 kts | 174° |
| 2026-04-30 21:27 | 46.32866 | 8.63349 | 38316 ft | 466 kts | 174° |
| 2026-04-30 21:28 | 46.23170 | 8.64720 | 38322 ft | 467 kts | 174° |
| 2026-04-30 21:29 | 46.13516 | 8.66057 | 38322 ft | 467 kts | 174° |
| 2026-04-30 21:29 | 46.03834 | 8.65136 | 38312 ft | 467 kts | 188° |
| 2026-04-30 21:30 | 45.97399 | 8.63808 | 38311 ft | 467 kts | 189° |
| 2026-04-30 21:31 | 45.81308 | 8.60549 | 38308 ft | 467 kts | 189° |
| 2026-04-30 21:32 | 45.71661 | 8.58590 | 38312 ft | 467 kts | 189° |
| 2026-04-30 21:32 | 45.65229 | 8.57291 | 38297 ft | 467 kts | 189° |
| 2026-04-30 21:33 | 45.55576 | 8.55362 | 38317 ft | 467 kts | 189° |
| 2026-04-30 21:34 | 45.49142 | 8.54060 | 38320 ft | 467 kts | 189° |
| 2026-04-30 21:34 | 45.39471 | 8.52120 | 38345 ft | 468 kts | 189° |
| 2026-04-30 21:35 | 45.33030 | 8.50838 | 38350 ft | 467 kts | 189° |
| 2026-04-30 21:35 | 45.26590 | 8.49569 | 38350 ft | 467 kts | 189° |
| 2026-04-30 21:36 | 45.20189 | 8.48296 | 38346 ft | 466 kts | 189° |
| 2026-04-30 21:37 | 45.07378 | 8.45733 | 38337 ft | 464 kts | 189° |
| 2026-04-30 21:37 | 45.00969 | 8.44471 | 38310 ft | 465 kts | 189° |
| 2026-04-30 21:38 | 44.94560 | 8.43223 | 38317 ft | 465 kts | 189° |
| 2026-04-30 21:38 | 44.88150 | 8.41968 | 38163 ft | 466 kts | 190° |
| 2026-04-30 21:39 | 44.84945 | 8.41330 | 37892 ft | 465 kts | 190° |
| 2026-04-30 21:39 | 44.81743 | 8.40696 | 37619 ft | 464 kts | 190° |
| 2026-04-30 21:39 | 44.78538 | 8.40063 | 37351 ft | 464 kts | 190° |
| 2026-04-30 21:39 | 44.75340 | 8.39432 | 37088 ft | 465 kts | 190° |
| 2026-04-30 21:40 | 44.72136 | 8.38804 | 36586 ft | 466 kts | 190° |
| 2026-04-30 21:40 | 44.68898 | 8.38176 | 35790 ft | 471 kts | 189° |
| 2026-04-30 21:40 | 44.65634 | 8.37546 | 34930 ft | 477 kts | 189° |
| 2026-04-30 21:40 | 44.62324 | 8.36899 | 34018 ft | 483 kts | 189° |
| 2026-04-30 21:41 | 44.58972 | 8.36245 | 32926 ft | 489 kts | 189° |
| 2026-04-30 21:41 | 44.55583 | 8.35590 | 31887 ft | 494 kts | 189° |
| 2026-04-30 21:41 | 44.52215 | 8.34941 | 30993 ft | 495 kts | 189° |
| 2026-04-30 21:41 | 44.48800 | 8.34282 | 30146 ft | 494 kts | 189° |
| 2026-04-30 21:42 | 44.45379 | 8.33621 | 29500 ft | 486 kts | 189° |
| 2026-04-30 21:42 | 44.42096 | 8.32986 | 28826 ft | 480 kts | 189° |
| 2026-04-30 21:42 | 44.38807 | 8.32351 | 28151 ft | 474 kts | 189° |
| 2026-04-30 21:42 | 44.35580 | 8.31588 | 27480 ft | 467 kts | 195° |
| 2026-04-30 21:43 | 44.32540 | 8.30100 | 26854 ft | 459 kts | 206° |
| 2026-04-30 21:43 | 44.29806 | 8.27881 | 26230 ft | 451 kts | 218° |
| 2026-04-30 21:43 | 44.27462 | 8.25037 | 25612 ft | 444 kts | 229° |
| 2026-04-30 21:43 | 44.25553 | 8.21697 | 25009 ft | 437 kts | 238° |
| 2026-04-30 21:44 | 44.23843 | 8.18223 | 24418 ft | 433 kts | 237° |
| 2026-04-30 21:44 | 44.22138 | 8.14784 | 23841 ft | 429 kts | 237° |
| 2026-04-30 21:44 | 44.20443 | 8.11386 | 23218 ft | 424 kts | 237° |
| 2026-04-30 21:44 | 44.18765 | 8.08035 | 22690 ft | 418 kts | 237° |
| 2026-04-30 21:45 | 44.17107 | 8.04720 | 22154 ft | 414 kts | 237° |
| 2026-04-30 21:45 | 44.15473 | 8.01450 | 21635 ft | 410 kts | 237° |
| 2026-04-30 21:45 | 44.13852 | 7.98203 | 21134 ft | 406 kts | 237° |
| 2026-04-30 21:45 | 44.12247 | 7.94991 | 20628 ft | 402 kts | 237° |
| 2026-04-30 21:46 | 44.10658 | 7.91814 | 20061 ft | 399 kts | 237° |
| 2026-04-30 21:46 | 44.09071 | 7.88645 | 19501 ft | 397 kts | 237° |
| 2026-04-30 21:46 | 44.07496 | 7.85510 | 18976 ft | 394 kts | 237° |
| 2026-04-30 21:46 | 44.05931 | 7.82401 | 18434 ft | 391 kts | 237° |
| 2026-04-30 21:47 | 44.04379 | 7.79317 | 17848 ft | 388 kts | 237° |
| 2026-04-30 21:47 | 44.02839 | 7.76262 | 17209 ft | 385 kts | 237° |
| 2026-04-30 21:47 | 44.01330 | 7.73271 | 16659 ft | 381 kts | 237° |
| 2026-04-30 21:47 | 43.99813 | 7.70265 | 16341 ft | 380 kts | 237° |
| 2026-04-30 21:48 | 43.98279 | 7.67230 | 16034 ft | 379 kts | 237° |
| 2026-04-30 21:48 | 43.96785 | 7.64273 | 15731 ft | 378 kts | 237° |
| 2026-04-30 21:48 | 43.95288 | 7.61307 | 15442 ft | 373 kts | 237° |
| 2026-04-30 21:48 | 43.93805 | 7.58364 | 15151 ft | 371 kts | 236° |
| 2026-04-30 21:49 | 43.92329 | 7.55441 | 14861 ft | 367 kts | 236° |
| 2026-04-30 21:49 | 43.90868 | 7.52552 | 14586 ft | 365 kts | 236° |
| 2026-04-30 21:49 | 43.89414 | 7.49682 | 14289 ft | 363 kts | 236° |
| 2026-04-30 21:49 | 43.87962 | 7.46822 | 14000 ft | 361 kts | 236° |
| 2026-04-30 21:50 | 43.86361 | 7.44157 | 13683 ft | 360 kts | 221° |
| 2026-04-30 21:50 | 43.84229 | 7.42377 | 13418 ft | 360 kts | 200° |
| 2026-04-30 21:50 | 43.81776 | 7.41763 | 13148 ft | 360 kts | 179° |
| 2026-04-30 21:50 | 43.79336 | 7.42402 | 12909 ft | 358 kts | 157° |
| 2026-04-30 21:51 | 43.77229 | 7.44151 | 12754 ft | 348 kts | 140° |
| 2026-04-30 21:51 | 43.75382 | 7.46203 | 12631 ft | 334 kts | 140° |
| 2026-04-30 21:51 | 43.73614 | 7.48174 | 12473 ft | 319 kts | 140° |
| 2026-04-30 21:51 | 43.71911 | 7.50070 | 12098 ft | 311 kts | 140° |
| 2026-04-30 21:52 | 43.70237 | 7.51933 | 11632 ft | 307 kts | 140° |
| 2026-04-30 21:52 | 43.68592 | 7.53771 | 11332 ft | 302 kts | 140° |
| 2026-04-30 21:52 | 43.66869 | 7.55431 | 10880 ft | 305 kts | 154° |
| 2026-04-30 21:52 | 43.64820 | 7.56118 | 10407 ft | 304 kts | 178° |
| 2026-04-30 21:53 | 43.62750 | 7.55892 | 9946 ft | 301 kts | 186° |
| 2026-04-30 21:53 | 43.60685 | 7.55577 | 9522 ft | 297 kts | 186° |
| 2026-04-30 21:53 | 43.58631 | 7.55265 | 9117 ft | 296 kts | 186° |
| 2026-04-30 21:53 | 43.56579 | 7.54955 | 8712 ft | 297 kts | 185° |
| 2026-04-30 21:54 | 43.54532 | 7.54646 | 8310 ft | 296 kts | 185° |
| 2026-04-30 21:54 | 43.52490 | 7.54338 | 7974 ft | 294 kts | 185° |
| 2026-04-30 21:54 | 43.50472 | 7.53896 | 7588 ft | 293 kts | 196° |
| 2026-04-30 21:54 | 43.48670 | 7.52612 | 7188 ft | 294 kts | 219° |
| 2026-04-30 21:55 | 43.47364 | 7.50513 | 7034 ft | 284 kts | 241° |
| 2026-04-30 21:55 | 43.46673 | 7.48017 | 6717 ft | 279 kts | 257° |
| 2026-04-30 21:55 | 43.46212 | 7.45373 | 5997 ft | 289 kts | 258° |
| 2026-04-30 21:55 | 43.45769 | 7.42679 | 5516 ft | 287 kts | 258° |
| 2026-04-30 21:56 | 43.45340 | 7.40029 | 5171 ft | 278 kts | 258° |
| 2026-04-30 21:56 | 43.44927 | 7.37486 | 4960 ft | 268 kts | 257° |
| 2026-04-30 21:56 | 43.44519 | 7.35009 | 4753 ft | 262 kts | 257° |
| 2026-04-30 21:56 | 43.44116 | 7.32596 | 4547 ft | 256 kts | 257° |
| 2026-04-30 21:57 | 43.43722 | 7.30237 | 4335 ft | 250 kts | 257° |
| 2026-04-30 21:57 | 43.43335 | 7.27930 | 4147 ft | 245 kts | 257° |
| 2026-04-30 21:57 | 43.42954 | 7.25656 | 3949 ft | 242 kts | 257° |
| 2026-04-30 21:57 | 43.42848 | 7.23399 | 3744 ft | 232 kts | 278° |
| 2026-04-30 21:58 | 43.43290 | 7.21325 | 3547 ft | 222 kts | 300° |
| 2026-04-30 21:58 | 43.44150 | 7.19635 | 3350 ft | 212 kts | 317° |
| 2026-04-30 21:58 | 43.45112 | 7.18135 | 3148 ft | 207 kts | 316° |
| 2026-04-30 21:58 | 43.46188 | 7.16899 | 3037 ft | 198 kts | 337° |
| 2026-04-30 21:59 | 43.47432 | 7.16270 | 3009 ft | 190 kts | 357° |
| 2026-04-30 21:59 | 43.48664 | 7.16118 | 3031 ft | 169 kts | 3° |
| 2026-04-30 21:59 | 43.49777 | 7.16004 | 3007 ft | 153 kts | 3° |
| 2026-04-30 22:00 | 43.51804 | 7.15802 | 2787 ft | 140 kts | 5° |
| 2026-04-30 22:00 | 43.53631 | 7.15625 | 2131 ft | 129 kts | 5° |
| 2026-04-30 22:00 | 43.54512 | 7.15542 | 2034 ft | 127 kts | 6° |
| 2026-04-30 22:01 | 43.55409 | 7.15461 | 2045 ft | 130 kts | 5° |
| 2026-04-30 22:01 | 43.56321 | 7.15379 | 1932 ft | 131 kts | 5° |
| 2026-04-30 22:01 | 43.57232 | 7.15299 | 1769 ft | 130 kts | 6° |
| 2026-04-30 22:01 | 43.58130 | 7.15222 | 1587 ft | 129 kts | 5° |
| 2026-04-30 22:02 | 43.59027 | 7.15130 | 1410 ft | 130 kts | 3° |
| 2026-04-30 22:02 | 43.59924 | 7.15048 | 1212 ft | 128 kts | 5° |
| 2026-04-30 22:02 | 43.60761 | 7.15321 | 1036 ft | 122 kts | 28° |
| 2026-04-30 22:02 | 43.61537 | 7.15883 | 925 ft | 128 kts | 31° |
| 2026-04-30 22:03 | 43.62254 | 7.16632 | 816 ft | 129 kts | 36° |
| 2026-04-30 22:03 | 43.62944 | 7.17431 | 650 ft | 129 kts | 39° |
| 2026-04-30 22:03 | 43.63606 | 7.18266 | 488 ft | 130 kts | 42° |
| 2026-04-30 22:03 | 43.64271 | 7.19159 | 336 ft | 135 kts | 41° |
| 2026-04-30 22:04 | 43.64932 | 7.20066 | 151 ft | 134 kts | 43° |
| 2026-04-30 22:04 | 43.65571 | 7.20942 | 28 ft | 121 kts | 45° |
| 2026-04-30 22:04 | 43.66304 | 7.21940 | 24 ft | 18 kts | 36° |
| 2026-04-30 22:05 | 43.66415 | 7.22013 | 23 ft | 20 kts | 22° |
| 2026-04-30 22:05 | 43.66525 | 7.22054 | 24 ft | 15 kts | 346° |
| 2026-04-30 22:05 | 43.66593 | 7.21979 | 24 ft | 10 kts | 315° |
| 2026-04-30 22:05 | 43.66641 | 7.21908 | 22 ft | 9 kts | 304° |
| 2026-04-30 22:06 | 43.66620 | 7.21821 | 23 ft | 11 kts | 227° |
| 2026-04-30 22:06 | 43.66489 | 7.21641 | 24 ft | 11 kts | 225° |
| 2026-04-30 22:06 | 43.66440 | 7.21575 | 23 ft | 10 kts | 226° |
| 2026-04-30 22:07 | 43.66383 | 7.21494 | 22 ft | 13 kts | 224° |
| 2026-04-30 22:07 | 43.66351 | 7.21417 | 22 ft | 15 kts | 255° |
| 2026-04-30 22:07 | 43.66329 | 7.21218 | 22 ft | 14 kts | 261° |
| 2026-04-30 22:07 | 43.66312 | 7.21078 | 23 ft | 16 kts | 261° |
| 2026-04-30 22:08 | 43.66315 | 7.20981 | 22 ft | 16 kts | 293° |
| 2026-04-30 22:08 | 43.66314 | 7.20850 | 22 ft | 12 kts | 261° |
| 2026-04-30 22:08 | 43.66275 | 7.20762 | 23 ft | 11 kts | 193° |
| 2026-04-30 22:08 | 43.66235 | 7.20744 | 23 ft | 6 kts | 249° |
| 2026-04-30 22:09 | 43.66230 | 7.20690 | 22 ft | 1 kts | 261° |
| 2026-04-30 22:09 | 43.66228 | 7.20678 | 22 ft | 2 kts | 261° |
| 2026-04-30 22:09 | 43.66227 | 7.20668 | 22 ft | 0 kts | 261° |